Time;durP1;ratioP1;P1;durP2;ratioP2;P2;SDS_P1;SDS_P2;PMS_P1;PMS_P2;Temp;Humidity;BMP_temperature;BMP_pressure;BME280_temperature;BME280_humidity;BME280_pressure;Samples;Min_cycle;Max_cycle;Signal;HPM_P1;HPM_P2
2022/08/16 00:01:01;;;;;;;3.20;1.60;;;25.40;62.90;;;;;;10859242;32;20032;-76
2022/08/16 00:07:03;;;;;;;2.75;1.65;;;25.20;64.20;;;;;;10863068;32;20051;-73
2022/08/16 00:13:09;;;;;;;5.07;2.37;;;25.30;64.00;;;;;;10862959;32;20024;-74
2022/08/16 00:19:13;;;;;;;5.43;3.00;;;25.10;65.60;;;;;;10862808;32;20016;-72
2022/08/16 00:25:17;;;;;;;3.35;2.22;;;24.70;68.10;;;;;;10862739;32;20392;-73
2022/08/16 00:31:19;;;;;;;2.60;1.70;;;24.50;69.10;;;;;;10862345;32;20041;-73
2022/08/16 00:37:24;;;;;;;5.45;3.75;;;24.60;68.50;;;;;;10862242;32;20071;-75
2022/08/16 00:43:33;;;;;;;3.22;2.08;;;24.40;68.20;;;;;;10862094;32;20054;-75
2022/08/16 00:49:36;;;;;;;2.90;2.22;;;24.10;68.50;;;;;;10848231;32;20046;-75
2022/08/16 00:55:47;;;;;;;2.97;1.50;;;24.00;68.00;;;;;;10861961;32;20050;-74
2022/08/16 01:01:48;;;;;;;2.40;2.20;;;24.20;66.90;;;;;;10861613;32;20024;-73
2022/08/16 01:07:52;;;;;;;3.05;1.92;;;24.50;66.20;;;;;;10861553;32;20039;-74
2022/08/16 01:13:59;;;;;;;2.40;1.20;;;24.80;65.70;;;;;;10861452;32;20027;-74
2022/08/16 01:20:06;;;;;;;1.67;1.20;;;24.80;66.00;;;;;;10861373;32;20046;-73
2022/08/16 01:26:08;;;;;;;2.08;1.33;;;24.80;65.50;;;;;;10860989;32;20426;-74
2022/08/16 01:32:11;;;;;;;5.07;1.17;;;24.90;65.00;;;;;;10861018;32;20355;-72
2022/08/16 01:39:01;;;;;;;3.53;2.15;;;25.10;64.70;;;;;;10860727;32;20063;-73
2022/08/16 01:45:04;;;;;;;2.65;1.37;;;25.20;64.40;;;;;;10675042;33;20029;-73
2022/08/16 01:51:07;;;;;;;4.05;1.52;;;25.30;64.10;;;;;;10673846;33;20041;-74
2022/08/16 01:57:09;;;;;;;1.42;1.10;;;25.30;63.90;;;;;;10673680;33;20032;-74
2022/08/16 02:03:13;;;;;;;1.00;0.95;;;25.20;63.90;;;;;;10679194;33;20402;-73
2022/08/16 02:09:15;;;;;;;2.53;1.35;;;24.90;64.10;;;;;;10680775;33;20094;-73
2022/08/16 02:15:35;;;;;;;3.10;1.48;;;24.80;64.00;;;;;;10679475;33;20253;-73
2022/08/16 02:21:39;;;;;;;2.58;1.80;;;24.90;63.80;;;;;;10828173;32;20422;-73
2022/08/16 02:27:43;;;;;;;1.98;1.15;;;24.80;63.80;;;;;;10865872;32;20309;-74
2022/08/16 02:33:45;;;;;;;1.52;1.10;;;24.70;63.70;;;;;;10863172;32;20020;-74
2022/08/16 02:39:48;;;;;;;1.40;1.12;;;24.80;63.40;;;;;;10865646;32;20027;-73
2022/08/16 02:45:50;;;;;;;1.75;1.15;;;24.70;63.40;;;;;;10865688;32;20103;-73
2022/08/16 02:51:52;;;;;;;1.65;1.20;;;24.70;63.60;;;;;;10865450;32;20024;-74
2022/08/16 02:57:54;;;;;;;3.03;1.42;;;24.80;63.40;;;;;;10865078;32;20027;-74
2022/08/16 03:04:00;;;;;;;1.95;1.45;;;24.80;63.30;;;;;;10864889;32;20031;-73
2022/08/16 03:10:05;;;;;;;1.52;1.10;;;24.70;63.20;;;;;;10864764;32;20024;-74
2022/08/16 03:16:09;;;;;;;3.05;1.85;;;24.50;63.30;;;;;;10857982;32;20404;-74
2022/08/16 03:22:11;;;;;;;1.98;1.40;;;24.60;63.30;;;;;;10864558;32;20046;-74
2022/08/16 03:28:14;;;;;;;1.45;1.12;;;24.40;63.30;;;;;;10864273;32;20046;-74
2022/08/16 03:34:16;;;;;;;1.90;1.12;;;24.30;63.30;;;;;;10864098;32;20027;-74
2022/08/16 03:40:18;;;;;;;2.95;1.95;;;24.30;63.40;;;;;;10859809;32;20027;-73
2022/08/16 03:46:21;;;;;;;6.65;2.97;;;24.40;63.20;;;;;;10863755;32;20020;-74
2022/08/16 03:52:24;;;;;;;1.37;1.05;;;24.30;63.10;;;;;;10863614;32;20089;-73
2022/08/16 03:58:27;;;;;;;3.08;1.45;;;24.20;63.30;;;;;;10850216;32;20050;-73
2022/08/16 04:04:30;;;;;;;5.30;2.47;;;24.10;63.60;;;;;;10863158;32;20051;-73
2022/08/16 04:10:32;;;;;;;1.65;1.27;;;24.00;63.60;;;;;;10862941;32;20054;-73
2022/08/16 04:16:34;;;;;;;6.25;2.45;;;24.00;63.60;;;;;;10862825;32;20469;-73
2022/08/16 04:22:38;;;;;;;3.12;2.03;;;24.20;63.60;;;;;;10862165;32;20058;-73
2022/08/16 04:28:40;;;;;;;3.45;1.77;;;24.30;63.50;;;;;;10868224;27;20036;-73
2022/08/16 04:34:43;;;;;;;3.58;1.83;;;24.20;63.50;;;;;;10899678;32;20046;-73
2022/08/16 04:40:46;;;;;;;3.08;1.77;;;24.30;63.60;;;;;;10899534;32;20033;-73
2022/08/16 04:46:56;;;;;;;2.62;2.10;;;24.30;63.50;;;;;;10899274;32;20023;-73
2022/08/16 04:53:22;;;;;;;3.40;1.75;;;24.20;63.70;;;;;;10900333;32;20046;-73
2022/08/16 04:59:24;;;;;;;3.10;1.90;;;24.30;63.50;;;;;;10899055;32;20058;-73
2022/08/16 05:05:26;;;;;;;2.33;1.73;;;24.30;63.30;;;;;;10898771;32;20050;-73
2022/08/16 05:11:46;;;;;;;4.00;2.42;;;24.20;63.40;;;;;;10898813;32;20023;-73
2022/08/16 05:17:48;;;;;;;4.45;2.12;;;24.20;63.30;;;;;;10898683;32;20015;-73
2022/08/16 05:23:52;;;;;;;4.30;2.87;;;24.10;63.30;;;;;;10898555;32;20524;-73
2022/08/16 05:29:54;;;;;;;2.60;1.80;;;24.10;63.30;;;;;;10898372;32;20051;-73
2022/08/16 05:35:56;;;;;;;9.65;2.87;;;24.20;63.40;;;;;;10887200;32;20027;-73
2022/08/16 05:42:00;;;;;;;4.55;2.92;;;24.30;63.30;;;;;;10904748;32;20011;-73
2022/08/16 05:48:03;;;;;;;4.93;2.70;;;24.30;63.00;;;;;;10904591;32;20392;-73
2022/08/16 05:55:00;;;;;;;4.25;1.70;;;24.40;63.00;;;;;;10904200;32;20023;-72
2022/08/16 06:01:04;;;;;;;3.80;1.73;;;24.30;62.90;;;;;;10716729;33;20047;-72
2022/08/16 06:07:07;;;;;;;2.72;1.30;;;24.50;63.10;;;;;;10716312;33;20048;-73
2022/08/16 06:13:11;;;;;;;1.52;1.10;;;24.50;63.10;;;;;;10716188;33;20350;-72
2022/08/16 06:19:13;;;;;;;1.37;1.05;;;24.60;62.80;;;;;;10692171;33;20055;-72
2022/08/16 06:25:17;;;;;;;3.70;1.48;;;24.70;62.80;;;;;;10715754;33;20025;-72
2022/08/16 06:31:20;;;;;;;1.52;1.00;;;24.80;62.70;;;;;;10759645;32;20050;-72
2022/08/16 06:37:22;;;;;;;0.60;0.40;;;24.80;62.40;;;;;;10903078;32;20046;-72
2022/08/16 06:43:25;;;;;;;3.10;0.98;;;24.90;62.20;;;;;;10889529;32;20019;-72
2022/08/16 06:49:32;;;;;;;2.40;1.25;;;25.00;62.10;;;;;;10899035;32;20023;-72
2022/08/16 06:56:12;;;;;;;1.27;0.68;;;25.10;62.00;;;;;;10902584;32;20081;-73
2022/08/16 07:02:16;;;;;;;0.43;0.43;;;25.30;61.80;;;;;;10902343;32;20049;-73
2022/08/16 07:08:18;;;;;;;0.88;0.52;;;25.30;61.80;;;;;;10902209;32;20312;-72
2022/08/16 07:14:21;;;;;;;1.62;0.90;;;25.30;61.70;;;;;;10901818;32;20173;-72
2022/08/16 07:20:26;;;;;;;1.45;1.05;;;25.30;61.70;;;;;;10901762;32;20081;-72
2022/08/16 07:26:34;;;;;;;1.00;0.85;;;25.40;61.60;;;;;;10901729;32;20015;-73
2022/08/16 07:32:37;;;;;;;0.93;0.77;;;25.50;61.50;;;;;;10897246;32;20058;-73
2022/08/16 07:39:08;;;;;;;7.65;1.52;;;25.50;61.40;;;;;;10901324;32;20327;-73
2022/08/16 07:45:20;;;;;;;1.20;1.00;;;25.60;61.30;;;;;;10900940;32;20054;-72
2022/08/16 07:51:23;;;;;;;1.05;0.85;;;25.70;61.20;;;;;;10900910;32;20091;-74
2022/08/16 07:57:26;;;;;;;1.60;0.80;;;25.80;61.10;;;;;;10900483;32;20050;-73
2022/08/16 08:03:28;;;;;;;1.20;0.65;;;25.80;60.90;;;;;;10899709;32;20024;-73
2022/08/16 08:09:31;;;;;;;2.00;1.20;;;25.80;61.10;;;;;;10862001;32;20035;-73
2022/08/16 08:15:33;;;;;;;1.77;1.17;;;25.80;60.80;;;;;;10862989;32;20050;-73
2022/08/16 08:21:47;;;;;;;2.42;1.30;;;26.00;60.60;;;;;;10862912;32;20054;-73
2022/08/16 08:27:49;;;;;;;2.90;1.37;;;26.10;60.50;;;;;;10849249;32;20046;-73
2022/08/16 08:33:55;;;;;;;1.95;1.23;;;26.10;60.70;;;;;;10862721;32;20425;-73
2022/08/16 08:39:57;;;;;;;1.62;0.80;;;26.20;60.60;;;;;;10862147;32;20050;-73
2022/08/16 08:46:00;;;;;;;5.28;2.08;;;26.20;60.50;;;;;;10862130;32;20399;-73
2022/08/16 08:52:10;;;;;;;2.50;1.30;;;26.20;60.40;;;;;;10861971;32;20024;-73
2022/08/16 08:58:26;;;;;;;1.90;0.85;;;26.20;60.40;;;;;;10861619;32;20382;-73
2022/08/16 09:04:30;;;;;;;29.60;2.87;;;26.30;60.20;;;;;;10861627;32;20024;-72
2022/08/16 09:10:33;;;;;;;1.45;1.33;;;26.40;59.90;;;;;;10863376;32;20032;-73
2022/08/16 09:16:36;;;;;;;3.60;1.67;;;26.40;59.60;;;;;;10867698;32;20027;-73
2022/08/16 09:22:42;;;;;;;2.08;1.33;;;26.60;59.60;;;;;;10868010;32;20031;-73
2022/08/16 09:29:10;;;;;;;1.75;1.48;;;26.80;59.00;;;;;;10867793;32;20070;-73
2022/08/16 09:35:12;;;;;;;2.37;1.60;;;26.80;58.80;;;;;;10867802;32;20031;-73
2022/08/16 09:41:15;;;;;;;2.00;1.35;;;26.90;58.70;;;;;;10867447;32;20055;-73
2022/08/16 09:47:19;;;;;;;2.25;1.42;;;27.10;58.50;;;;;;10867386;32;20023;-73
2022/08/16 09:53:29;;;;;;;4.35;1.80;;;27.30;58.40;;;;;;10864669;32;20047;-73
2022/08/16 09:59:32;;;;;;;2.53;1.52;;;27.20;58.10;;;;;;10867004;32;20024;-73
2022/08/16 10:05:36;;;;;;;5.35;2.00;;;27.20;58.10;;;;;;10868189;32;20085;-73
2022/08/16 10:18:06;;;;;;;2.78;1.62;;;27.50;57.70;;;;;;10866612;32;20051;-73
2022/08/16 10:24:08;;;;;;;;;;;27.70;57.60;;;;;;10862452;32;20069;-74
2022/08/16 10:30:11;;;;;;;2.50;1.60;;;27.90;57.40;;;;;;10866002;32;20283;-73
2022/08/16 10:36:13;;;;;;;1.62;1.08;;;28.00;57.20;;;;;;10865788;32;20024;-74
2022/08/16 10:42:16;;;;;;;1.65;1.10;;;28.20;57.00;;;;;;10852528;32;20382;-73
2022/08/16 10:48:18;;;;;;;2.08;1.23;;;28.30;56.70;;;;;;10850479;32;20024;-75
2022/08/16 10:54:21;;;;;;;3.55;2.20;;;28.50;56.60;;;;;;10852160;32;20087;-73
2022/08/16 11:00:23;;;;;;;2.35;1.73;;;28.60;56.00;;;;;;10865223;32;20019;-74
2022/08/16 11:06:26;;;;;;;3.15;1.87;;;28.70;55.80;;;;;;10865052;32;20028;-74
2022/08/16 11:12:28;;;;;;;2.97;1.83;;;28.90;55.70;;;;;;10864900;32;20297;-75
2022/08/16 11:18:31;;;;;;;2.60;1.50;;;29.20;55.10;;;;;;10864704;32;20019;-74
2022/08/16 11:24:38;;;;;;;2.97;1.62;;;29.40;55.00;;;;;;10864398;32;20046;-73
2022/08/16 11:30:51;;;;;;;2.28;1.65;;;29.80;54.30;;;;;;10864531;32;20367;-74
2022/08/16 11:36:53;;;;;;;3.45;1.65;;;30.00;53.40;;;;;;10863353;32;20019;-73
2022/08/16 11:42:57;;;;;;;2.85;1.35;;;30.20;53.10;;;;;;10846501;32;20064;-73
2022/08/16 11:49:49;;;;;;;4.72;1.65;;;30.30;52.60;;;;;;10863738;32;20331;-74
2022/08/16 11:55:52;;;;;;;2.83;1.77;;;30.60;52.20;;;;;;10665492;33;20029;-75
2022/08/16 12:01:56;;;;;;;2.45;1.33;;;30.70;51.90;;;;;;10676621;33;20431;-74
2022/08/16 12:07:58;;;;;;;2.58;1.50;;;30.60;51.60;;;;;;10676591;33;20040;-74
2022/08/16 12:14:02;;;;;;;1.55;1.05;;;30.50;51.60;;;;;;10677301;33;20025;-74
2022/08/16 12:20:08;;;;;;;4.45;1.80;;;30.50;51.60;;;;;;10673543;33;20055;-75
2022/08/16 12:26:10;;;;;;;4.65;2.00;;;30.60;51.30;;;;;;10664802;33;20064;-75
2022/08/16 12:32:13;;;;;;;4.03;2.00;;;30.60;50.90;;;;;;10831341;27;20044;-76
2022/08/16 12:38:16;;;;;;;3.00;1.73;;;30.60;50.60;;;;;;10824959;33;20335;-76
2022/08/16 12:44:18;;;;;;;1.45;1.00;;;30.50;50.30;;;;;;10820265;32;20020;-75
2022/08/16 12:50:20;;;;;;;3.85;2.08;;;30.40;50.40;;;;;;10824854;33;20040;-75
2022/08/16 12:56:30;;;;;;;3.92;1.98;;;30.50;50.20;;;;;;10824586;33;20103;-74
2022/08/16 13:02:32;;;;;;;2.05;1.48;;;30.60;50.20;;;;;;10824525;33;20039;-76
2022/08/16 13:08:35;;;;;;;2.70;1.48;;;30.70;49.90;;;;;;10824407;33;20096;-76
2022/08/16 13:14:40;;;;;;;2.42;1.70;;;30.80;49.80;;;;;;10824166;33;20028;-74
2022/08/16 13:20:42;;;;;;;1.20;0.90;;;30.80;49.70;;;;;;10787314;33;20033;-74
2022/08/16 13:26:44;;;;;;;3.40;1.87;;;31.00;49.20;;;;;;10786186;33;20054;-74
2022/08/16 13:32:47;;;;;;;1.67;1.35;;;31.00;48.70;;;;;;10823994;33;20047;-74
2022/08/16 13:38:49;;;;;;;2.40;1.50;;;30.90;48.50;;;;;;10810730;33;20036;-75
2022/08/16 13:44:52;;;;;;;2.50;1.83;;;31.00;48.20;;;;;;10823802;33;20043;-74
2022/08/16 13:50:56;;;;;;;3.85;1.83;;;31.10;48.20;;;;;;10823706;33;20031;-75
2022/08/16 13:56:59;;;;;;;4.28;1.67;;;31.10;48.10;;;;;;10825599;32;20028;-74
2022/08/16 14:03:01;;;;;;;4.35;2.30;;;31.10;48.60;;;;;;10816729;33;20055;-75
2022/08/16 14:09:12;;;;;;;6.70;2.90;;;31.10;49.80;;;;;;10829359;33;20059;-73
2022/08/16 14:15:15;;;;;;;5.20;2.65;;;31.20;50.20;;;;;;10829241;33;20040;-75
2022/08/16 14:21:17;;;;;;;6.25;1.95;;;31.10;50.60;;;;;;10829323;33;20020;-73
2022/08/16 14:27:22;;;;;;;2.28;1.62;;;31.00;50.80;;;;;;10811998;33;20032;-74
2022/08/16 14:33:24;;;;;;;4.15;2.75;;;31.10;50.60;;;;;;10829092;33;20042;-74
2022/08/16 14:39:26;;;;;;;3.58;2.00;;;31.10;50.70;;;;;;10828636;33;20435;-74
2022/08/16 14:45:29;;;;;;;2.08;1.45;;;31.10;50.70;;;;;;10815257;33;20069;-76
2022/08/16 14:51:31;;;;;;;2.58;1.83;;;31.10;51.00;;;;;;10812884;33;20400;-75
2022/08/16 14:57:33;;;;;;;3.03;1.85;;;31.30;50.70;;;;;;10823978;33;20043;-74
2022/08/16 15:03:35;;;;;;;4.80;2.67;;;31.30;50.60;;;;;;10825753;33;20032;-74
2022/08/16 15:09:39;;;;;;;2.92;1.87;;;31.30;50.30;;;;;;10827137;32;20411;-74
2022/08/16 15:15:42;;;;;;;2.90;1.77;;;31.40;50.40;;;;;;10814506;33;20027;-75
2022/08/16 15:21:45;;;;;;;2.97;1.65;;;31.40;50.50;;;;;;10815154;33;20043;-74
2022/08/16 15:27:48;;;;;;;2.90;1.90;;;31.50;50.40;;;;;;10828249;33;20028;-75
2022/08/16 15:33:50;;;;;;;2.75;1.50;;;31.80;50.20;;;;;;10815002;32;20042;-75
2022/08/16 15:39:52;;;;;;;2.85;1.60;;;31.80;50.20;;;;;;10814808;33;20345;-75
2022/08/16 15:52:48;;;;;;;3.78;2.17;;;31.90;49.90;;;;;;10827774;33;20554;-74
2022/08/16 15:59:03;;;;;;;3.05;2.10;;;31.90;49.90;;;;;;10827628;33;20050;-74
2022/08/16 16:05:07;;;;;;;2.40;1.45;;;31.90;49.90;;;;;;10814009;33;20028;-74
2022/08/16 16:11:10;;;;;;;2.25;1.42;;;31.90;50.00;;;;;;10826515;33;20028;-75
2022/08/16 16:17:12;;;;;;;1.60;1.20;;;31.80;50.00;;;;;;10825444;33;20081;-74
2022/08/16 16:23:26;;;;;;;2.58;1.50;;;31.80;50.10;;;;;;10826155;32;20461;-74
2022/08/16 16:29:28;;;;;;;4.60;1.90;;;31.80;50.10;;;;;;10825813;33;20051;-74
2022/08/16 16:35:33;;;;;;;2.58;1.70;;;31.80;50.40;;;;;;10821397;33;20036;-73
2022/08/16 16:41:37;;;;;;;5.07;1.95;;;31.70;50.40;;;;;;10822090;33;20328;-74
2022/08/16 16:47:39;;;;;;;2.60;1.55;;;31.70;50.60;;;;;;10825802;33;20050;-74
2022/08/16 16:53:46;;;;;;;2.40;1.40;;;31.60;50.60;;;;;;10824988;33;20051;-75
2022/08/16 16:59:48;;;;;;;2.62;1.65;;;31.50;50.90;;;;;;10821283;33;20032;-73
2022/08/16 17:06:11;;;;;;;1.52;1.05;;;31.50;50.90;;;;;;10825229;33;20036;-73
2022/08/16 17:12:14;;;;;;;2.42;1.65;;;31.90;50.10;;;;;;10811137;33;20046;-72
2022/08/16 17:18:29;;;;;;;2.15;1.10;;;31.90;50.10;;;;;;10820562;33;20391;-72
2022/08/16 17:24:32;;;;;;;4.93;1.90;;;31.80;50.20;;;;;;10823601;33;20321;-72
2022/08/16 17:30:36;;;;;;;1.85;1.20;;;32.20;49.60;;;;;;10820607;33;20388;-72
2022/08/16 17:36:38;;;;;;;8.32;1.87;;;33.40;47.60;;;;;;10830610;33;20032;-72
2022/08/16 17:43:00;;;;;;;1.60;0.80;;;33.60;46.90;;;;;;10830450;33;20035;-72
2022/08/16 17:49:02;;;;;;;1.62;1.15;;;32.40;48.80;;;;;;10953309;32;20030;-72
2022/08/16 17:55:16;;;;;;;2.00;1.42;;;31.70;50.20;;;;;;11024337;32;20045;-72
2022/08/16 18:01:24;;;;;;;1.42;1.00;;;31.20;50.90;;;;;;11023958;32;20018;-72
2022/08/16 18:07:26;;;;;;;1.40;0.85;;;30.80;51.30;;;;;;11019674;32;20460;-72
2022/08/16 18:13:28;;;;;;;2.30;1.12;;;30.60;51.70;;;;;;11020041;32;20034;-72
2022/08/16 18:19:32;;;;;;;1.08;0.90;;;30.40;52.00;;;;;;11019104;32;20069;-72
2022/08/16 18:25:36;;;;;;;1.27;0.55;;;30.20;52.30;;;;;;11019252;32;20022;-72
2022/08/16 18:31:38;;;;;;;1.60;0.93;;;30.00;52.50;;;;;;11018823;32;20041;-72
2022/08/16 18:37:40;;;;;;;2.45;1.00;;;29.80;52.80;;;;;;11022736;32;20029;-72
2022/08/16 18:43:42;;;;;;;0.80;0.70;;;29.70;53.00;;;;;;11021368;32;20018;-72
2022/08/16 18:49:44;;;;;;;1.52;0.95;;;29.60;53.10;;;;;;11020410;32;20030;-72
2022/08/16 18:55:48;;;;;;;2.90;1.12;;;29.40;53.30;;;;;;11017829;32;20373;-72
2022/08/16 19:01:50;;;;;;;2.58;0.95;;;29.30;53.70;;;;;;11017403;32;20022;-72
2022/08/16 19:07:52;;;;;;;2.30;0.95;;;29.20;53.80;;;;;;11021787;32;20026;-72
2022/08/16 19:13:55;;;;;;;2.95;1.12;;;29.10;54.00;;;;;;11007822;32;20018;-72
2022/08/16 19:19:57;;;;;;;2.25;1.02;;;29.10;54.00;;;;;;11021077;32;20084;-72
2022/08/16 19:26:05;;;;;;;1.33;0.75;;;28.90;54.10;;;;;;11016750;32;20386;-72
2022/08/16 19:32:23;;;;;;;1.15;0.80;;;28.90;54.10;;;;;;11006816;32;20475;-72
2022/08/16 19:38:25;;;;;;;1.15;0.82;;;28.90;54.20;;;;;;11016755;32;20026;-72
2022/08/16 19:44:27;;;;;;;1.70;1.02;;;28.80;54.60;;;;;;11019955;32;20083;-72
2022/08/16 19:51:15;;;;;;;3.08;1.05;;;28.70;54.60;;;;;;11018134;32;20049;-71
2022/08/16 19:58:15;;;;;;;1.42;0.95;;;28.60;54.70;;;;;;10902950;32;20050;-72
2022/08/16 20:04:17;;;;;;;3.08;1.30;;;28.50;54.70;;;;;;10897789;32;20050;-71
2022/08/16 20:10:22;;;;;;;1.75;1.05;;;28.50;54.90;;;;;;10897478;32;20042;-71
2022/08/16 20:16:24;;;;;;;1.23;0.70;;;28.40;55.10;;;;;;10883774;32;20422;-71
2022/08/16 20:22:30;;;;;;;1.05;0.80;;;28.40;55.20;;;;;;10720062;32;20033;-72
2022/08/16 20:28:32;;;;;;;1.48;0.90;;;28.30;55.20;;;;;;10673647;27;1909800;-71
2022/08/16 20:34:34;;;;;;;1.92;1.17;;;28.30;55.40;;;;;;10885269;32;20057;-72
2022/08/16 20:40:37;;;;;;;4.18;1.05;;;28.20;55.40;;;;;;10899487;32;20062;-72
2022/08/16 20:46:39;;;;;;;1.20;0.60;;;28.10;55.50;;;;;;10899459;32;20024;-71
2022/08/16 20:52:42;;;;;;;2.25;1.00;;;28.10;55.60;;;;;;10898424;32;20027;-71
2022/08/16 20:58:43;;;;;;;1.85;1.17;;;28.00;55.70;;;;;;10885994;32;20023;-72
2022/08/16 21:04:46;;;;;;;1.48;1.08;;;28.00;55.90;;;;;;10898433;32;20066;-72
2022/08/16 21:10:49;;;;;;;1.12;1.02;;;27.80;56.00;;;;;;10898546;32;20050;-72
2022/08/16 21:16:51;;;;;;;2.03;0.93;;;27.80;56.40;;;;;;10895409;32;20031;-71
2022/08/16 21:30:14;;;;;;;4.53;1.83;;;27.50;57.30;;;;;;10898526;32;20036;-71
2022/08/16 21:36:16;;;;;;;2.47;1.62;;;27.40;57.70;;;;;;10898397;32;20359;-71
2022/08/16 21:42:19;;;;;;;1.80;1.27;;;27.40;57.80;;;;;;10898221;32;20069;-71
2022/08/16 21:48:22;;;;;;;4.37;2.22;;;27.40;57.80;;;;;;10898009;32;20019;-70
2022/08/16 21:54:24;;;;;;;4.80;2.50;;;27.40;58.20;;;;;;10897848;32;20032;-71
2022/08/16 22:00:27;;;;;;;1.95;1.27;;;27.20;58.70;;;;;;10896577;32;20031;-71
2022/08/16 22:06:29;;;;;;;3.10;1.65;;;27.30;58.70;;;;;;10894982;32;20331;-71
2022/08/16 22:12:32;;;;;;;2.55;1.33;;;27.30;58.50;;;;;;10897559;32;20100;-71
2022/08/16 22:18:34;;;;;;;2.83;2.00;;;27.30;58.60;;;;;;10900173;32;20058;-71
2022/08/16 22:24:36;;;;;;;5.15;1.98;;;27.10;58.90;;;;;;10886111;32;20020;-71
2022/08/16 22:30:39;;;;;;;6.53;1.80;;;27.10;59.20;;;;;;10900298;32;20014;-71
2022/08/16 22:36:42;;;;;;;6.78;2.20;;;27.20;58.90;;;;;;10903068;32;20035;-71
2022/08/16 22:42:48;;;;;;;2.87;1.80;;;27.20;58.80;;;;;;10900232;32;20020;-71
2022/08/16 22:48:50;;;;;;;2.17;1.48;;;27.00;59.30;;;;;;10902859;32;20027;-71
2022/08/16 22:54:52;;;;;;;3.00;1.80;;;26.90;59.40;;;;;;10889572;32;20415;-71
2022/08/16 23:00:55;;;;;;;2.05;1.20;;;27.00;59.20;;;;;;10902566;32;20035;-71
2022/08/16 23:06:57;;;;;;;2.65;1.50;;;26.90;59.00;;;;;;10901262;32;20077;-71
2022/08/16 23:13:03;;;;;;;2.00;1.33;;;26.90;59.00;;;;;;10902347;32;20054;-71
2022/08/16 23:19:08;;;;;;;2.65;1.65;;;26.90;59.10;;;;;;10901994;32;20050;-71
2022/08/16 23:25:15;;;;;;;3.33;2.03;;;27.00;58.90;;;;;;10901922;32;20015;-71
2022/08/16 23:31:17;;;;;;;4.12;2.17;;;27.00;58.90;;;;;;10899451;32;20027;-71
2022/08/16 23:37:19;;;;;;;2.05;1.30;;;27.00;58.90;;;;;;10901450;32;20023;-71
2022/08/16 23:43:24;;;;;;;4.12;2.12;;;26.90;58.80;;;;;;10901302;32;20106;-71
2022/08/16 23:49:26;;;;;;;4.03;2.20;;;26.80;58.90;;;;;;10901249;32;20019;-71
2022/08/16 23:55:28;;;;;;;3.53;1.77;;;26.80;58.80;;;;;;10900944;32;20046;-71
